Time;durP1;ratioP1;P1;durP2;ratioP2;P2;SDS_P1;SDS_P2;PMS_P1;PMS_P2;Temp;Humidity;BMP_temperature;BMP_pressure;BME280_temperature;BME280_humidity;BME280_pressure;Samples;Min_cycle;Max_cycle;Signal;HPM_P1;HPM_P2
2022/05/25 00:02:17;;;;;;;1.38;1.27;;;8.00;99.90;;;;;;5019098;28;20087;-74
2022/05/25 00:04:44;;;;;;;1.67;1.40;;;8.00;99.90;;;;;;5016971;28;20120;-73
2022/05/25 00:07:11;;;;;;;5.47;1.58;;;7.90;99.90;;;;;;5021054;28;20381;-73
2022/05/25 00:09:38;;;;;;;3.83;1.77;;;7.90;99.90;;;;;;5018422;28;20600;-73
2022/05/25 00:12:04;;;;;;;4.00;1.60;;;7.80;99.90;;;;;;5017733;28;20447;-73
2022/05/25 00:14:29;;;;;;;2.88;1.45;;;7.80;99.90;;;;;;5012453;28;20120;-73
2022/05/25 00:16:55;;;;;;;2.92;1.70;;;7.70;99.90;;;;;;5015872;28;20109;-73
2022/05/25 00:22:05;;;;;;;5.63;2.33;;;7.60;99.90;;;;;;5016854;28;20367;-73
2022/05/25 00:24:31;;;;;;;2.60;1.52;;;7.60;99.90;;;;;;5020055;28;20552;-73
2022/05/25 00:26:56;;;;;;;2.90;1.60;;;7.60;99.90;;;;;;5019392;28;20026;-73
2022/05/25 00:29:22;;;;;;;1.80;1.60;;;7.60;99.90;;;;;;5017793;28;20591;-73
2022/05/25 00:31:47;;;;;;;5.68;1.60;;;7.70;99.90;;;;;;5017829;28;20021;-73
2022/05/25 00:34:13;;;;;;;1.63;1.35;;;7.80;99.90;;;;;;5018563;28;20049;-73
2022/05/25 00:36:39;;;;;;;1.52;1.42;;;7.80;99.90;;;;;;5016643;28;20034;-73
2022/05/25 00:39:05;;;;;;;2.70;1.67;;;7.90;99.90;;;;;;5017022;28;20539;-73
2022/05/25 00:41:31;;;;;;;3.85;1.92;;;7.90;99.90;;;;;;5020813;28;20026;-72
2022/05/25 00:43:58;;;;;;;4.60;2.15;;;7.90;99.90;;;;;;5015970;28;20496;-74
2022/05/25 00:46:26;;;;;;;4.72;2.60;;;7.90;99.90;;;;;;5018448;28;20029;-73
2022/05/25 00:48:58;;;;;;;8.75;4.18;;;7.90;99.90;;;;;;5019642;28;20080;-73
2022/05/25 00:51:34;;;;;;;10.48;5.78;;;8.00;99.90;;;;;;5013004;28;20072;-73
2022/05/25 00:54:04;;;;;;;8.82;5.13;;;8.10;99.90;;;;;;5019124;28;20037;-74
2022/05/25 00:56:32;;;;;;;5.15;3.92;;;8.20;99.90;;;;;;5030972;28;20034;-73
2022/05/25 00:59:03;;;;;;;2.35;1.52;;;8.30;99.90;;;;;;5014831;28;20423;-73
2022/05/25 01:01:30;;;;;;;3.25;1.52;;;8.30;99.90;;;;;;5018736;28;20033;-74
2022/05/25 01:03:56;;;;;;;2.72;0.90;;;8.40;99.90;;;;;;5019627;28;20511;-73
2022/05/25 01:06:31;;;;;;;0.70;0.70;;;8.40;99.90;;;;;;5020004;28;20025;-73
2022/05/25 01:09:37;;;;;;;0.38;0.38;;;8.40;99.90;;;;;;5019056;28;20061;-73
2022/05/25 01:12:11;;;;;;;1.02;0.30;;;8.50;99.90;;;;;;5010882;28;20040;-74
2022/05/25 01:14:49;;;;;;;1.05;0.47;;;8.50;99.90;;;;;;5008046;28;20049;-74
2022/05/25 01:17:24;;;;;;;1.60;0.40;;;8.50;99.90;;;;;;5018947;28;20025;-72
2022/05/25 01:20:34;;;;;;;2.33;0.45;;;8.50;99.90;;;;;;5020077;28;20086;-74
2022/05/25 01:23:29;;;;;;;0.65;0.50;;;8.50;99.90;;;;;;5003751;28;20091;-74
2022/05/25 01:26:40;;;;;;;1.63;1.10;;;8.40;99.90;;;;;;5016289;28;20125;-74
2022/05/25 01:29:32;;;;;;;2.23;1.20;;;8.40;99.90;;;;;;5019933;28;20041;-73
2022/05/25 01:32:19;;;;;;;1.35;1.20;;;8.30;99.90;;;;;;5020636;28;20404;-74
2022/05/25 01:34:54;;;;;;;5.18;1.60;;;8.10;99.90;;;;;;5011821;28;20031;-74
2022/05/25 01:37:52;;;;;;;3.65;2.35;;;8.00;99.90;;;;;;5018409;28;20044;-73
2022/05/25 01:40:23;;;;;;;3.53;2.30;;;7.90;99.90;;;;;;4997030;28;20061;-74
2022/05/25 01:42:59;;;;;;;5.03;2.77;;;7.70;99.90;;;;;;5018896;28;20160;-74
2022/05/25 01:45:30;;;;;;;3.67;2.08;;;7.60;99.90;;;;;;5027367;28;20322;-73
2022/05/25 01:47:59;;;;;;;2.00;1.40;;;7.60;99.90;;;;;;5025810;28;20060;-73
2022/05/25 01:50:33;;;;;;;4.63;1.10;;;7.60;99.90;;;;;;5027030;28;20160;-73
2022/05/25 01:53:01;;;;;;;1.05;0.77;;;7.70;99.90;;;;;;5023129;28;20489;-73
2022/05/25 01:55:31;;;;;;;0.90;0.90;;;7.80;99.90;;;;;;5021118;28;20046;-73
2022/05/25 01:58:01;;;;;;;1.77;0.90;;;7.80;99.90;;;;;;5019514;28;20527;-74
2022/05/25 02:00:34;;;;;;;2.80;1.17;;;7.80;99.90;;;;;;5019623;28;20788;-73
2022/05/25 02:05:59;;;;;;;1.17;0.90;;;7.70;99.90;;;;;;5016401;28;20151;-73
2022/05/25 02:08:55;;;;;;;2.35;1.10;;;7.60;99.90;;;;;;5008131;28;20037;-73
2022/05/25 02:11:35;;;;;;;3.05;2.05;;;7.50;99.90;;;;;;5017943;28;20033;-73
2022/05/25 02:14:03;;;;;;;5.47;1.60;;;7.40;99.90;;;;;;5019772;28;20056;-74
2022/05/25 02:16:48;;;;;;;4.05;1.90;;;7.30;99.90;;;;;;5018306;28;20042;-73
2022/05/25 02:19:45;;;;;;;3.13;1.30;;;7.20;99.90;;;;;;5020696;28;20063;-73
2022/05/25 02:22:24;;;;;;;2.70;1.00;;;7.20;99.90;;;;;;5013431;28;20400;-73
2022/05/25 02:24:59;;;;;;;2.08;0.90;;;7.00;99.90;;;;;;5018064;28;20030;-74
2022/05/25 02:27:42;;;;;;;3.03;0.90;;;7.00;99.90;;;;;;5017535;28;20116;-73
2022/05/25 02:30:16;;;;;;;1.98;0.60;;;6.90;99.90;;;;;;5033492;28;20126;-73
2022/05/25 02:32:59;;;;;;;1.65;0.80;;;6.90;99.90;;;;;;5010903;28;20401;-73
2022/05/25 02:35:26;;;;;;;0.77;0.65;;;6.90;99.90;;;;;;5016003;28;20060;-74
2022/05/25 02:37:56;;;;;;;1.13;0.68;;;6.80;99.90;;;;;;5020368;28;20017;-74
2022/05/25 02:40:22;;;;;;;0.50;0.45;;;6.80;99.90;;;;;;5012160;28;20033;-73
2022/05/25 02:42:47;;;;;;;0.88;0.50;;;6.80;99.90;;;;;;5019347;28;20036;-73
2022/05/25 02:45:14;;;;;;;2.00;0.65;;;6.80;99.90;;;;;;5015073;28;20164;-73
2022/05/25 02:47:40;;;;;;;0.60;0.60;;;6.90;99.90;;;;;;5016706;28;20025;-73
2022/05/25 02:50:06;;;;;;;0.75;0.73;;;6.90;99.90;;;;;;5018080;28;20338;-72
2022/05/25 02:52:32;;;;;;;0.63;0.40;;;7.00;99.90;;;;;;5022583;28;20037;-74
2022/05/25 02:54:57;;;;;;;0.50;0.50;;;7.00;99.90;;;;;;5020991;28;20037;-74
2022/05/25 02:57:23;;;;;;;2.08;0.70;;;7.10;99.90;;;;;;5019694;28;20488;-73
2022/05/25 02:59:49;;;;;;;2.80;0.70;;;7.10;99.90;;;;;;5021653;28;20044;-73
2022/05/25 03:02:15;;;;;;;0.60;0.60;;;7.20;99.90;;;;;;5019985;28;20029;-74
2022/05/25 03:04:41;;;;;;;3.10;0.70;;;7.20;99.90;;;;;;5017969;28;20512;-74
2022/05/25 03:07:07;;;;;;;1.45;0.80;;;7.30;99.90;;;;;;5014333;28;20140;-73
2022/05/25 03:09:34;;;;;;;1.00;0.80;;;7.30;99.90;;;;;;5019656;28;20037;-74
2022/05/25 03:12:02;;;;;;;2.47;0.68;;;7.40;99.90;;;;;;5019043;28;20026;-73
2022/05/25 03:14:28;;;;;;;0.98;0.73;;;7.50;99.90;;;;;;5018657;28;20061;-74
2022/05/25 03:16:54;;;;;;;1.25;0.55;;;7.60;99.90;;;;;;5019191;28;20553;-74
2022/05/25 03:19:20;;;;;;;3.47;0.75;;;7.80;99.90;;;;;;5016455;28;20069;-74
2022/05/25 03:21:46;;;;;;;1.75;0.75;;;7.80;99.90;;;;;;5020143;28;20586;-74
2022/05/25 03:24:13;;;;;;;2.63;0.70;;;7.90;99.90;;;;;;5017303;28;20030;-73
2022/05/25 03:26:39;;;;;;;2.20;0.75;;;8.00;99.90;;;;;;5006482;28;20025;-74
2022/05/25 03:29:05;;;;;;;0.95;0.65;;;8.00;99.90;;;;;;5017266;28;20045;-74
2022/05/25 03:31:31;;;;;;;1.02;0.70;;;8.00;99.90;;;;;;5016930;28;20053;-73
2022/05/25 03:33:56;;;;;;;1.75;1.17;;;8.00;99.90;;;;;;5018531;28;20057;-73
2022/05/25 03:36:22;;;;;;;1.77;0.60;;;7.90;99.90;;;;;;5017762;28;20036;-74
2022/05/25 03:38:48;;;;;;;4.07;1.08;;;7.90;99.90;;;;;;5021856;28;20726;-74
2022/05/25 03:41:17;;;;;;;2.75;0.70;;;7.90;99.90;;;;;;5016424;28;20591;-73
2022/05/25 03:43:43;;;;;;;1.45;0.88;;;7.80;99.90;;;;;;5015331;28;20450;-73
2022/05/25 03:46:09;;;;;;;2.55;0.82;;;7.80;99.90;;;;;;5015759;28;20291;-73
2022/05/25 03:48:35;;;;;;;0.60;0.60;;;7.70;99.90;;;;;;5013814;28;20484;-73
2022/05/25 03:51:00;;;;;;;1.25;0.68;;;7.60;99.90;;;;;;5013259;28;20057;-73
2022/05/25 03:53:26;;;;;;;1.42;0.60;;;7.50;99.90;;;;;;5010983;28;20041;-73
2022/05/25 03:55:52;;;;;;;2.10;0.68;;;7.50;99.90;;;;;;5016577;28;20561;-74
2022/05/25 03:58:18;;;;;;;2.75;0.90;;;7.50;99.90;;;;;;5015689;28;20029;-73
2022/05/25 04:00:44;;;;;;;5.35;0.95;;;7.50;99.90;;;;;;5019756;28;20044;-73
2022/05/25 04:03:14;;;;;;;5.85;1.10;;;7.50;99.90;;;;;;5014580;28;20583;-73
2022/05/25 04:05:41;;;;;;;1.20;0.65;;;7.60;99.90;;;;;;5014305;28;20676;-74
2022/05/25 04:08:07;;;;;;;3.08;0.85;;;7.60;99.90;;;;;;5014671;28;20025;-74
2022/05/25 04:10:33;;;;;;;2.38;1.13;;;7.60;99.90;;;;;;5016495;28;20072;-74
2022/05/25 04:12:59;;;;;;;1.95;0.80;;;7.70;99.90;;;;;;5017422;28;20065;-73
2022/05/25 04:15:27;;;;;;;3.10;1.10;;;7.70;99.90;;;;;;5017566;28;20580;-74
2022/05/25 04:17:53;;;;;;;1.83;1.10;;;7.70;99.90;;;;;;5014807;28;20026;-74
2022/05/25 04:20:21;;;;;;;1.75;1.10;;;7.70;99.90;;;;;;5012650;28;20017;-74
2022/05/25 04:22:47;;;;;;;1.85;0.90;;;7.80;99.90;;;;;;5018278;28;20131;-74
2022/05/25 04:25:17;;;;;;;3.28;0.75;;;7.90;99.90;;;;;;5012612;28;20132;-74
2022/05/25 04:27:44;;;;;;;5.75;0.90;;;8.00;99.90;;;;;;5013311;28;20025;-74
2022/05/25 04:30:13;;;;;;;3.92;1.00;;;8.10;99.90;;;;;;5016125;28;20043;-74
2022/05/25 04:32:39;;;;;;;2.67;0.98;;;8.30;99.90;;;;;;5016306;28;20047;-74
2022/05/25 04:35:06;;;;;;;1.27;0.77;;;8.30;99.90;;;;;;5014256;28;20037;-74
2022/05/25 04:37:49;;;;;;;1.77;0.70;;;8.50;99.90;;;;;;5017962;28;20112;-74
2022/05/25 04:40:18;;;;;;;3.00;0.75;;;8.60;99.90;;;;;;5020532;28;20052;-74
2022/05/25 04:42:45;;;;;;;4.20;1.00;;;8.70;99.90;;;;;;5017861;28;20572;-75
2022/05/25 04:45:12;;;;;;;6.50;1.38;;;8.90;99.90;;;;;;5019331;28;20239;-74
2022/05/25 04:47:40;;;;;;;1.20;0.98;;;9.00;99.90;;;;;;5016902;28;20076;-73
2022/05/25 04:50:07;;;;;;;1.45;0.82;;;9.10;99.90;;;;;;5016675;28;20095;-75
2022/05/25 04:52:34;;;;;;;0.82;0.70;;;9.20;99.90;;;;;;5027994;28;20137;-74
2022/05/25 04:54:59;;;;;;;1.35;0.80;;;9.30;99.90;;;;;;5017194;28;20053;-74
2022/05/25 04:57:27;;;;;;;2.20;0.75;;;9.40;99.90;;;;;;5017346;28;20067;-74
2022/05/25 05:00:05;;;;;;;2.90;0.60;;;9.50;99.90;;;;;;5020416;28;20466;-74
2022/05/25 05:02:30;;;;;;;2.70;1.98;;;9.60;99.90;;;;;;5010774;28;20076;-76
2022/05/25 05:04:57;;;;;;;4.88;0.70;;;9.70;99.90;;;;;;5015859;28;20057;-74
2022/05/25 05:07:34;;;;;;;2.35;0.60;;;9.70;99.90;;;;;;5018384;28;20075;-73
2022/05/25 05:10:01;;;;;;;0.60;0.55;;;9.80;99.90;;;;;;5020554;28;20052;-74
2022/05/25 05:12:27;;;;;;;1.95;0.60;;;10.00;99.90;;;;;;5020267;28;20627;-74
2022/05/25 05:14:53;;;;;;;1.70;0.73;;;10.10;99.90;;;;;;5024679;28;20029;-74
2022/05/25 05:17:19;;;;;;;1.75;0.60;;;10.20;99.90;;;;;;5016074;28;20517;-74
2022/05/25 05:19:45;;;;;;;3.03;0.57;;;10.30;99.90;;;;;;5017926;28;20030;-74
2022/05/25 05:22:10;;;;;;;2.83;0.70;;;10.40;99.90;;;;;;5017000;28;20061;-74
2022/05/25 05:24:36;;;;;;;0.68;0.68;;;10.30;99.90;;;;;;5017744;28;20520;-75
2022/05/25 05:27:02;;;;;;;1.90;0.63;;;10.20;99.90;;;;;;5018302;28;20060;-74
2022/05/25 05:29:30;;;;;;;1.40;0.65;;;10.00;99.90;;;;;;5022400;28;20041;-74
2022/05/25 05:31:57;;;;;;;0.88;0.50;;;10.00;99.90;;;;;;5018783;28;20025;-73
2022/05/25 05:34:22;;;;;;;1.77;0.52;;;10.00;99.90;;;;;;5021180;28;20049;-73
2022/05/25 05:36:54;;;;;;;2.72;1.55;;;10.00;99.90;;;;;;5022093;28;20029;-74
2022/05/25 05:39:25;;;;;;;1.80;0.43;;;9.90;99.90;;;;;;5019913;28;20401;-75
2022/05/25 05:41:59;;;;;;;4.38;0.80;;;9.90;99.90;;;;;;5022984;28;20029;-74
2022/05/25 05:44:30;;;;;;;3.50;0.73;;;10.00;99.90;;;;;;5023314;28;20496;-74
2022/05/25 05:46:59;;;;;;;1.67;0.70;;;10.00;99.90;;;;;;5021198;28;20036;-74
2022/05/25 05:49:25;;;;;;;1.38;0.80;;;10.20;99.90;;;;;;5024035;28;20041;-74
2022/05/25 05:51:51;;;;;;;6.78;1.05;;;10.30;99.90;;;;;;5029923;28;20040;-74
2022/05/25 05:54:18;;;;;;;5.97;1.00;;;10.50;99.90;;;;;;5018092;28;20116;-73
2022/05/25 05:56:44;;;;;;;2.10;0.68;;;10.60;99.90;;;;;;5021316;28;20496;-75
2022/05/25 05:59:10;;;;;;;2.40;0.90;;;10.80;99.90;;;;;;5022486;28;20037;-74
2022/05/25 06:01:36;;;;;;;3.03;0.80;;;11.10;99.90;;;;;;5015329;28;20390;-74
2022/05/25 06:04:02;;;;;;;4.53;0.70;;;11.20;99.90;;;;;;5022096;28;20540;-74
2022/05/25 06:06:28;;;;;;;2.42;0.80;;;11.60;99.90;;;;;;5020948;28;20485;-74
2022/05/25 06:08:56;;;;;;;3.47;0.70;;;12.00;99.90;;;;;;5020079;28;20060;-74
2022/05/25 06:11:22;;;;;;;4.57;0.70;;;12.70;99.90;;;;;;4673486;28;10000597;-74
2022/05/25 06:13:48;;;;;;;5.50;0.75;;;13.40;99.90;;;;;;5020533;28;20029;-74
2022/05/25 06:21:42;;;;;;;5.95;0.68;;;15.20;99.90;;;;;;5018775;28;20047;-74
2022/05/25 06:24:08;;;;;;;6.32;0.85;;;15.40;99.90;;;;;;5027133;28;20033;-74
2022/05/25 06:26:34;;;;;;;7.68;0.90;;;15.50;99.90;;;;;;5018218;28;20038;-72
2022/05/25 06:29:01;;;;;;;4.95;0.50;;;15.40;99.90;;;;;;5013037;28;20073;-75
2022/05/25 06:31:28;;;;;;;9.20;0.95;;;15.50;99.90;;;;;;5006350;28;20048;-75
2022/05/25 06:33:54;;;;;;;3.85;0.60;;;15.50;99.90;;;;;;5018319;28;20056;-75
2022/05/25 06:36:21;;;;;;;7.97;0.70;;;15.60;99.90;;;;;;5016688;28;20036;-74
2022/05/25 06:38:47;;;;;;;4.20;1.10;;;15.50;99.90;;;;;;5020973;28;20094;-77
2022/05/25 06:41:13;;;;;;;6.68;0.75;;;15.60;99.90;;;;;;5014957;28;21014;-75
2022/05/25 06:43:39;;;;;;;5.00;0.50;;;15.60;99.90;;;;;;5014704;28;20029;-75
2022/05/25 06:46:06;;;;;;;4.82;0.50;;;15.50;99.90;;;;;;5025234;28;20037;-75
2022/05/25 06:48:32;;;;;;;2.63;0.70;;;15.50;99.90;;;;;;5018817;28;20037;-75
2022/05/25 06:50:57;;;;;;;8.43;0.50;;;15.60;99.90;;;;;;5017346;28;20033;-74
2022/05/25 06:53:23;;;;;;;5.97;0.60;;;15.80;99.90;;;;;;5014385;28;20038;-76
2022/05/25 06:55:48;;;;;;;7.85;0.90;;;16.00;99.90;;;;;;5011568;28;20033;-75
2022/05/25 06:58:14;;;;;;;5.35;0.70;;;16.00;99.90;;;;;;5011736;28;20457;-75
2022/05/25 07:00:40;;;;;;;1.75;0.30;;;16.20;99.90;;;;;;5009732;28;20037;-76
2022/05/25 07:03:06;;;;;;;6.22;1.25;;;16.40;99.90;;;;;;5013703;28;20040;-75
2022/05/25 07:05:33;;;;;;;7.82;1.42;;;16.50;99.90;;;;;;5021771;28;20055;-79
2022/05/25 07:07:59;;;;;;;7.07;0.70;;;16.40;99.40;;;;;;5029723;28;20439;-75
2022/05/25 07:10:25;;;;;;;5.35;1.10;;;16.40;99.90;;;;;;5022965;28;20524;-75
2022/05/25 07:12:50;;;;;;;2.83;0.60;;;16.30;99.90;;;;;;5024976;28;20040;-72
2022/05/25 07:15:16;;;;;;;8.90;1.30;;;16.40;99.90;;;;;;5019628;28;20037;-75
2022/05/25 07:17:42;;;;;;;6.70;0.80;;;16.60;99.90;;;;;;5009728;28;20026;-76
2022/05/25 07:20:09;;;;;;;12.77;1.25;;;16.80;99.90;;;;;;5025366;28;20128;-75
2022/05/25 07:22:36;;;;;;;9.10;1.00;;;17.00;98.90;;;;;;5026040;28;20079;-73
2022/05/25 07:25:02;;;;;;;4.75;0.80;;;16.90;99.90;;;;;;5020974;28;20029;-74
2022/05/25 07:27:28;;;;;;;6.15;0.90;;;16.80;97.80;;;;;;5029052;28;20037;-74
2022/05/25 07:29:53;;;;;;;8.27;1.25;;;16.80;99.20;;;;;;5014489;28;20589;-77
2022/05/25 07:32:20;;;;;;;7.90;0.82;;;16.60;98.60;;;;;;5004801;28;20044;-77
2022/05/25 07:34:50;;;;;;;6.32;0.80;;;16.60;99.60;;;;;;5019057;28;20036;-79
2022/05/25 07:37:21;;;;;;;6.23;0.80;;;16.50;99.80;;;;;;5016086;28;20257;-78
2022/05/25 07:40:02;;;;;;;9.93;0.90;;;16.60;99.90;;;;;;5016741;28;20283;-77
2022/05/25 07:42:29;;;;;;;9.60;0.73;;;16.60;99.90;;;;;;5021497;28;20033;-76
2022/05/25 07:44:57;;;;;;;7.28;0.90;;;16.70;98.60;;;;;;5019846;28;20693;-76
2022/05/25 07:47:23;;;;;;;6.85;0.60;;;16.70;99.00;;;;;;5025034;28;20025;-77
2022/05/25 07:49:49;;;;;;;5.07;0.90;;;16.80;97.20;;;;;;5013040;28;20042;-74
2022/05/25 07:52:15;;;;;;;5.80;0.85;;;16.60;98.90;;;;;;5007536;28;20032;-75
2022/05/25 07:54:43;;;;;;;4.43;1.05;;;16.60;98.60;;;;;;5006713;28;20040;-76
2022/05/25 07:57:09;;;;;;;8.02;1.60;;;16.70;99.90;;;;;;5006159;28;20500;-75
2022/05/25 07:59:35;;;;;;;5.05;0.70;;;16.60;98.80;;;;;;5009534;28;20030;-75
2022/05/25 08:07:36;;;;;;;7.07;0.68;;;16.90;98.50;;;;;;5011008;28;20040;-77
2022/05/25 08:10:08;;;;;;;7.35;1.13;;;17.10;97.70;;;;;;5016254;28;20059;-76
2022/05/25 08:12:37;;;;;;;7.95;0.93;;;17.50;98.00;;;;;;5012805;28;20036;-75
2022/05/25 08:15:03;;;;;;;6.75;0.70;;;17.90;98.10;;;;;;5015445;28;20068;-77
2022/05/25 08:17:29;;;;;;;8.23;1.15;;;18.00;95.00;;;;;;5014693;28;20036;-76
2022/05/25 08:19:55;;;;;;;9.25;1.63;;;18.10;97.60;;;;;;5012634;28;20041;-74
2022/05/25 08:22:20;;;;;;;7.20;0.90;;;18.10;94.80;;;;;;5014175;28;21741;-75
2022/05/25 08:24:46;;;;;;;6.57;1.05;;;18.40;97.30;;;;;;5015168;28;20516;-76
2022/05/25 08:27:12;;;;;;;7.13;0.77;;;18.60;95.40;;;;;;5021337;28;20033;-75
2022/05/25 08:29:37;;;;;;;6.53;1.67;;;18.60;94.20;;;;;;5019621;28;20088;-74
2022/05/25 08:32:03;;;;;;;9.70;1.38;;;18.10;95.00;;;;;;5019721;28;20037;-76
2022/05/25 08:34:31;;;;;;;8.35;1.17;;;18.30;94.90;;;;;;5014318;28;20259;-78
2022/05/25 08:36:57;;;;;;;6.38;1.15;;;18.40;95.30;;;;;;5015417;28;20107;-78
2022/05/25 08:39:23;;;;;;;7.68;1.02;;;18.60;96.00;;;;;;5022277;28;20029;-76
2022/05/25 08:41:52;;;;;;;7.32;0.80;;;19.10;95.70;;;;;;5019531;28;20036;-77
2022/05/25 08:44:20;;;;;;;8.80;0.90;;;19.10;93.80;;;;;;5016379;28;20037;-77
2022/05/25 08:46:46;;;;;;;10.27;1.00;;;19.20;93.20;;;;;;5007501;28;20204;-78
2022/05/25 08:49:17;;;;;;;5.00;0.90;;;19.10;91.90;;;;;;5009246;28;20041;-76
2022/05/25 08:51:47;;;;;;;14.63;1.65;;;18.70;95.50;;;;;;5007928;28;20030;-75
2022/05/25 08:54:14;;;;;;;6.18;0.80;;;18.60;95.80;;;;;;5004953;28;20036;-74
2022/05/25 08:56:42;;;;;;;8.50;1.10;;;18.10;95.70;;;;;;5009054;28;20029;-73
2022/05/25 08:59:14;;;;;;;6.85;0.80;;;17.80;95.80;;;;;;5012582;28;20108;-76
2022/05/25 09:02:05;;;;;;;5.25;0.77;;;18.20;99.60;;;;;;5005134;28;20382;-75
2022/05/25 09:04:44;;;;;;;5.65;1.17;;;18.60;97.60;;;;;;5010876;28;20038;-75
2022/05/25 09:07:28;;;;;;;8.68;1.65;;;19.00;97.00;;;;;;5005782;28;20053;-75
2022/05/25 09:09:54;;;;;;;5.43;0.85;;;19.30;95.10;;;;;;5029865;28;20048;-75
2022/05/25 09:12:37;;;;;;;6.50;1.10;;;19.60;93.60;;;;;;5010594;28;20026;-77
2022/05/25 09:15:11;;;;;;;7.93;0.93;;;19.50;93.80;;;;;;5026094;28;20242;-78
2022/05/25 09:17:42;;;;;;;5.38;1.98;;;19.60;91.30;;;;;;5025174;28;20029;-74
2022/05/25 09:20:13;;;;;;;5.00;0.77;;;19.40;91.00;;;;;;5033760;28;20029;-75
2022/05/25 09:22:41;;;;;;;8.63;0.90;;;19.40;94.00;;;;;;5026248;28;20056;-76
2022/05/25 09:25:10;;;;;;;8.55;1.15;;;19.20;91.90;;;;;;5029569;28;20121;-76
2022/05/25 09:27:58;;;;;;;10.43;2.28;;;18.80;93.90;;;;;;5027603;28;20108;-75
2022/05/25 09:30:26;;;;;;;8.07;0.98;;;18.80;95.20;;;;;;5021573;28;20029;-76
2022/05/25 09:33:07;;;;;;;7.53;1.10;;;18.90;96.10;;;;;;5023107;28;20041;-75
2022/05/25 09:35:43;;;;;;;8.52;1.05;;;18.70;93.90;;;;;;5024322;28;20630;-75
2022/05/25 09:38:36;;;;;;;6.13;1.17;;;18.30;96.20;;;;;;5019191;28;20034;-74
2022/05/25 09:41:06;;;;;;;9.50;0.82;;;17.90;98.30;;;;;;5002533;28;20053;-76
2022/05/25 09:43:33;;;;;;;5.95;0.95;;;17.60;99.90;;;;;;5023677;28;20123;-75
2022/05/25 09:46:08;;;;;;;5.72;1.23;;;17.10;99.80;;;;;;5024842;28;20041;-75
2022/05/25 09:48:50;;;;;;;8.90;1.50;;;16.70;99.90;;;;;;5025196;28;20652;-74
2022/05/25 09:51:26;;;;;;;6.32;0.77;;;16.70;99.90;;;;;;5023985;28;20033;-75
2022/05/25 09:53:56;;;;;;;8.70;1.83;;;16.40;99.90;;;;;;5024313;28;20084;-75
2022/05/25 09:56:49;;;;;;;8.93;0.90;;;16.40;99.90;;;;;;4667292;28;9999884;-74
2022/05/25 09:59:32;;;;;;;8.80;1.20;;;16.30;99.90;;;;;;5003836;28;20062;-75
2022/05/25 10:01:58;;;;;;;6.78;0.98;;;16.20;99.90;;;;;;5015582;28;20029;-74
2022/05/25 10:04:51;;;;;;;12.02;1.30;;;16.30;99.90;;;;;;5022356;28;20043;-75
2022/05/25 10:07:42;;;;;;;7.43;1.02;;;16.10;99.90;;;;;;5024079;28;20119;-75
2022/05/25 10:10:11;;;;;;;10.48;1.20;;;16.30;99.90;;;;;;5021220;28;20034;-74
2022/05/25 10:12:43;;;;;;;15.32;1.73;;;16.30;99.90;;;;;;5018756;28;20131;-76
2022/05/25 10:15:13;;;;;;;8.15;1.23;;;16.40;99.90;;;;;;5020719;28;20067;-74
2022/05/25 10:17:46;;;;;;;10.68;1.25;;;16.50;99.90;;;;;;5016349;28;20021;-73
2022/05/25 10:20:34;;;;;;;10.93;1.20;;;16.20;99.90;;;;;;5014126;28;20022;-76
2022/05/25 10:23:32;;;;;;;7.32;1.60;;;16.10;99.90;;;;;;5020023;28;20029;-75
2022/05/25 10:26:17;;;;;;;11.45;1.30;;;16.00;99.90;;;;;;5006164;28;20048;-75
2022/05/25 10:28:58;;;;;;;9.90;1.73;;;16.10;99.90;;;;;;5018660;28;20447;-74
2022/05/25 10:37:07;;;;;;;11.40;1.73;;;15.90;99.90;;;;;;5023476;28;20036;-72
2022/05/25 10:39:39;;;;;;;9.57;1.60;;;15.60;99.90;;;;;;5029114;28;20037;-76
2022/05/25 10:42:26;;;;;;;12.73;1.52;;;15.30;99.90;;;;;;5021880;28;20057;-73
2022/05/25 10:45:12;;;;;;;10.45;1.55;;;15.10;99.90;;;;;;5021583;28;20578;-74
2022/05/25 10:47:54;;;;;;;11.93;1.00;;;15.10;99.90;;;;;;5021310;28;20044;-74
2022/05/25 10:50:32;;;;;;;12.60;2.47;;;15.20;99.90;;;;;;5019957;28;20045;-74
2022/05/25 10:53:12;;;;;;;10.35;1.27;;;15.20;99.90;;;;;;5012534;28;20037;-73
2022/05/25 10:55:51;;;;;;;8.45;1.33;;;15.10;99.90;;;;;;5017649;28;20472;-73
2022/05/25 10:58:22;;;;;;;12.60;1.92;;;15.20;99.90;;;;;;5021397;28;20083;-73
2022/05/25 11:01:03;;;;;;;11.25;1.20;;;15.10;99.90;;;;;;5020768;28;20037;-74
2022/05/25 11:04:05;;;;;;;11.07;1.30;;;15.00;99.90;;;;;;5024932;28;20091;-74
2022/05/25 11:06:44;;;;;;;11.13;1.52;;;14.80;99.90;;;;;;5022219;28;20244;-72
2022/05/25 11:09:43;;;;;;;10.50;1.63;;;14.70;99.90;;;;;;5020908;28;20464;-74
2022/05/25 11:12:31;;;;;;;8.85;1.88;;;14.70;99.90;;;;;;5015443;28;20025;-73
2022/05/25 11:15:14;;;;;;;9.63;1.48;;;14.90;99.90;;;;;;5021009;28;20018;-74
2022/05/25 11:17:51;;;;;;;7.47;1.42;;;15.00;99.90;;;;;;5020609;28;20051;-74
2022/05/25 11:20:43;;;;;;;8.68;1.60;;;15.00;99.90;;;;;;5022819;28;20053;-73
2022/05/25 11:23:23;;;;;;;15.70;1.95;;;14.80;99.90;;;;;;5024234;28;20039;-74
2022/05/25 11:25:52;;;;;;;12.18;1.77;;;14.60;99.90;;;;;;5040051;28;20056;-73
2022/05/25 11:28:36;;;;;;;9.02;2.17;;;14.50;99.90;;;;;;5013423;28;20041;-74
2022/05/25 11:31:27;;;;;;;15.35;2.38;;;14.40;99.90;;;;;;5045315;28;20052;-74
2022/05/25 11:34:18;;;;;;;16.25;2.45;;;14.30;99.90;;;;;;5005089;28;20552;-74
2022/05/25 11:37:16;;;;;;;10.40;1.50;;;14.10;99.90;;;;;;5028382;28;20511;-72
2022/05/25 11:40:08;;;;;;;15.63;1.75;;;14.00;99.90;;;;;;4997999;28;20492;-72
2022/05/25 11:42:42;;;;;;;15.25;2.70;;;13.90;99.90;;;;;;5022141;28;20033;-71
2022/05/25 11:45:29;;;;;;;13.20;1.95;;;13.90;99.90;;;;;;5023529;28;20061;-73
2022/05/25 11:48:22;;;;;;;20.08;3.03;;;13.90;99.90;;;;;;5022141;28;20059;-72
2022/05/25 11:51:21;;;;;;;16.00;2.85;;;13.90;99.90;;;;;;5022223;28;20059;-73
2022/05/25 11:54:11;;;;;;;17.40;2.63;;;13.90;99.90;;;;;;5012817;28;20029;-72
2022/05/25 11:56:50;;;;;;;13.55;2.10;;;13.90;99.90;;;;;;5030056;28;20138;-72
2022/05/25 11:59:44;;;;;;;12.98;2.00;;;13.90;99.90;;;;;;5034121;28;20109;-74
2022/05/25 12:02:15;;;;;;;13.05;2.13;;;14.00;99.90;;;;;;5002782;28;20022;-72
2022/05/25 12:05:03;;;;;;;11.15;1.83;;;14.00;99.90;;;;;;5022327;28;20583;-72
2022/05/25 12:07:40;;;;;;;16.77;2.63;;;13.90;99.90;;;;;;5029153;28;20693;-73
2022/05/25 12:10:05;;;;;;;16.42;2.90;;;13.90;99.90;;;;;;5041725;28;20055;-72
2022/05/25 12:12:56;;;;;;;12.23;2.78;;;13.90;99.90;;;;;;5021474;28;20037;-72
2022/05/25 12:15:26;;;;;;;13.87;2.63;;;13.80;99.90;;;;;;5015654;28;20037;-72
2022/05/25 12:18:02;;;;;;;16.35;2.88;;;14.00;99.90;;;;;;5020788;28;20029;-72
2022/05/25 12:20:52;;;;;;;11.77;2.10;;;14.10;99.90;;;;;;5020527;28;20044;-71
2022/05/25 12:23:22;;;;;;;14.47;3.23;;;14.20;99.90;;;;;;4678336;28;9999664;-72
2022/05/25 12:26:06;;;;;;;16.55;2.78;;;14.20;99.90;;;;;;5015473;28;20055;-71
2022/05/25 12:28:37;;;;;;;11.98;2.60;;;14.20;99.90;;;;;;5016362;28;20109;-72
2022/05/25 12:31:08;;;;;;;19.02;2.88;;;14.30;99.90;;;;;;5022486;28;20465;-72
2022/05/25 12:33:35;;;;;;;14.27;2.55;;;14.30;99.90;;;;;;5016367;28;20083;-73
2022/05/25 12:36:07;;;;;;;14.80;2.67;;;14.30;99.90;;;;;;5019174;28;20029;-72
2022/05/25 12:38:35;;;;;;;17.77;2.47;;;14.30;99.90;;;;;;5018542;28;20108;-71
2022/05/25 12:41:39;;;;;;;14.25;2.53;;;14.40;99.90;;;;;;5019251;28;20663;-71
2022/05/25 12:49:56;;;;;;;16.00;2.97;;;14.10;99.90;;;;;;5031179;28;20151;-72
2022/05/25 12:52:27;;;;;;;20.85;2.63;;;14.00;99.90;;;;;;5015740;28;20026;-70
2022/05/25 12:55:04;;;;;;;16.30;2.90;;;14.00;99.90;;;;;;5024610;28;20068;-72
2022/05/25 12:57:52;;;;;;;12.48;2.63;;;13.90;99.90;;;;;;5021688;28;20037;-71
2022/05/25 13:00:25;;;;;;;18.50;2.80;;;14.00;99.90;;;;;;5020171;28;20203;-71
2022/05/25 13:02:52;;;;;;;18.60;2.95;;;14.00;99.90;;;;;;5007465;28;20021;-72
2022/05/25 13:05:50;;;;;;;11.48;2.83;;;14.00;99.90;;;;;;5011149;28;20033;-70
2022/05/25 13:08:47;;;;;;;15.05;3.05;;;14.10;99.90;;;;;;5020767;28;20068;-72
2022/05/25 13:11:42;;;;;;;19.45;2.75;;;14.30;99.90;;;;;;5018842;28;20428;-69
2022/05/25 13:14:16;;;;;;;16.73;2.40;;;14.30;99.90;;;;;;5025218;28;20033;-71
2022/05/25 13:16:42;;;;;;;12.82;2.80;;;14.40;99.90;;;;;;5030304;28;20055;-71
2022/05/25 13:19:40;;;;;;;16.98;3.60;;;14.40;99.90;;;;;;5019380;28;20496;-72
2022/05/25 13:22:17;;;;;;;10.93;2.40;;;14.60;99.90;;;;;;5008793;28;20033;-72
2022/05/25 13:25:14;;;;;;;13.73;2.40;;;14.70;99.90;;;;;;5014710;28;20080;-71
2022/05/25 13:28:02;;;;;;;21.80;3.25;;;14.70;99.90;;;;;;4671189;28;10001105;-72
2022/05/25 13:31:00;;;;;;;9.80;2.65;;;14.60;99.90;;;;;;5015842;28;20102;-71
2022/05/25 13:33:30;;;;;;;16.30;3.40;;;14.80;99.90;;;;;;5007097;28;20123;-72
2022/05/25 13:36:05;;;;;;;18.55;3.67;;;14.80;99.90;;;;;;5019229;28;20041;-71
2022/05/25 13:38:45;;;;;;;19.25;3.20;;;14.90;99.90;;;;;;5011764;28;20087;-73
2022/05/25 13:41:19;;;;;;;22.58;2.95;;;15.10;99.90;;;;;;5016981;28;20029;-73
2022/05/25 13:44:15;;;;;;;16.45;3.03;;;15.10;99.90;;;;;;5012561;28;20552;-71
2022/05/25 13:46:50;;;;;;;22.27;3.55;;;15.10;99.90;;;;;;5011667;28;20498;-72